Time;durP1;ratioP1;P1;durP2;ratioP2;P2;SDS_P1;SDS_P2;PMS_P1;PMS_P2;Temp;Humidity;BMP_temperature;BMP_pressure;BME280_temperature;BME280_humidity;BME280_pressure;Samples;Min_cycle;Max_cycle;Signal;HPM_P1;HPM_P2
2022/12/17 13:08:18;;;;;;;116.07;57.90;;;;;;;;;;5034272;28;20037;-68
2022/12/17 13:10:43;;;;;;;105.22;54.63;;;;;;;;;;5036147;28;20603;-68
2022/12/17 13:13:19;;;;;;;100.60;53.75;;;;;;;;;;5035319;28;20637;-68
2022/12/17 13:15:55;;;;;;;88.63;51.13;;;;;;;;;;5036102;28;20017;-68
2022/12/17 13:18:39;;;;;;;97.05;52.55;;;;;;;;;;5036096;28;20139;-68
2022/12/17 13:21:22;;;;;;;91.55;50.35;;;;;;;;;;5023848;28;20163;-67
2022/12/17 13:23:47;;;;;;;104.03;55.95;;;;;;;;;;5031992;28;20033;-68
2022/12/17 13:26:14;;;;;;;97.82;52.33;;;;;;;;;;5023820;28;20087;-68
2022/12/17 13:28:39;;;;;;;105.15;56.03;;;;;;;;;;5026314;28;20044;-68
2022/12/17 13:31:12;;;;;;;103.15;55.20;;;;;;;;;;5028649;28;20481;-67
2022/12/17 13:33:48;;;;;;;101.97;54.08;;;;;;;;;;5028945;28;20036;-69
2022/12/17 13:36:39;;;;;;;111.47;53.70;;;;;;;;;;5032403;28;20063;-69
2022/12/17 13:39:07;;;;;;;107.75;55.22;;;;;;;;;;5042589;28;20785;-69
2022/12/17 13:41:34;;;;;;;95.28;53.55;;;;;;;;;;5032612;28;20096;-69
2022/12/17 13:44:13;;;;;;;95.93;54.15;;;;;;;;;;5033671;28;20487;-68
2022/12/17 13:46:42;;;;;;;104.82;54.78;;;;;;;;;;5028754;28;20016;-68
2022/12/17 13:49:18;;;;;;;111.00;55.33;;;;;;;;;;5034112;28;20048;-68
2022/12/17 13:51:44;;;;;;;109.90;57.05;;;;;;;;;;5033048;28;20818;-68
2022/12/17 13:54:17;;;;;;;99.80;55.38;;;;;;;;;;5027870;28;20032;-68
2022/12/17 13:56:42;;;;;;;101.45;52.65;;;;;;;;;;5034643;28;20013;-68
2022/12/17 13:59:16;;;;;;;94.68;53.17;;;;;;;;;;5042600;28;21016;-68
2022/12/17 14:01:45;;;;;;;97.63;50.97;;;;;;;;;;5025438;28;20025;-70
2022/12/17 14:04:18;;;;;;;97.03;52.72;;;;;;;;;;5021776;28;20024;-71
2022/12/17 14:06:44;;;;;;;106.78;51.63;;;;;;;;;;5022334;28;20089;-70
2022/12/17 14:09:14;;;;;;;91.53;49.70;;;;;;;;;;5026606;28;20029;-69
2022/12/17 14:14:30;;;;;;;94.25;49.47;;;;;;;;;;5021326;28;20079;-68
2022/12/17 14:16:56;;;;;;;91.47;48.88;;;;;;;;;;5021778;28;20025;-69
2022/12/17 14:19:22;;;;;;;101.70;54.00;;;;;;;;;;5021553;28;20052;-68
2022/12/17 14:21:48;;;;;;;100.60;52.08;;;;;;;;;;5013506;28;20029;-68
2022/12/17 14:24:13;;;;;;;98.57;51.13;;;;;;;;;;5011643;28;20072;-68
2022/12/17 14:26:52;;;;;;;96.63;51.08;;;;;;;;;;5007883;28;20017;-68
2022/12/17 14:29:21;;;;;;;85.35;48.92;;;;;;;;;;5006875;28;20136;-68
2022/12/17 14:31:54;;;;;;;97.68;49.97;;;;;;;;;;5010610;28;20038;-69
2022/12/17 14:34:19;;;;;;;84.47;49.70;;;;;;;;;;5008083;28;20467;-69
2022/12/17 14:36:45;;;;;;;87.13;47.10;;;;;;;;;;5012806;28;20020;-68
2022/12/17 14:39:16;;;;;;;84.97;44.97;;;;;;;;;;5012618;28;20135;-68
2022/12/17 14:44:26;;;;;;;94.18;48.70;;;;;;;;;;5004440;28;20039;-68
2022/12/17 14:46:54;;;;;;;84.35;45.85;;;;;;;;;;5017233;28;20017;-68
2022/12/17 14:49:20;;;;;;;89.88;49.65;;;;;;;;;;5015415;28;20028;-71
2022/12/17 14:51:46;;;;;;;94.20;48.40;;;;;;;;;;5020011;28;20021;-68
2022/12/17 14:54:11;;;;;;;91.63;52.22;;;;;;;;;;5019441;28;20033;-69
2022/12/17 14:56:37;;;;;;;92.53;50.72;;;;;;;;;;5015763;28;20029;-68
2022/12/17 14:59:02;;;;;;;89.75;50.00;;;;;;;;;;5017482;28;20124;-68
2022/12/17 15:01:27;;;;;;;88.35;50.58;;;;;;;;;;5015040;28;20021;-68
2022/12/17 15:03:52;;;;;;;92.72;49.28;;;;;;;;;;5014409;28;20273;-71
2022/12/17 15:06:19;;;;;;;88.32;49.35;;;;;;;;;;5014417;28;20021;-69
2022/12/17 15:08:46;;;;;;;97.07;48.58;;;;;;;;;;5014956;28;20049;-67
2022/12/17 15:11:12;;;;;;;83.32;46.83;;;;;;;;;;5020286;28;20079;-68
2022/12/17 15:13:37;;;;;;;87.53;51.08;;;;;;;;;;5023438;28;20021;-69
2022/12/17 15:16:03;;;;;;;100.03;52.20;;;;;;;;;;5024362;28;20928;-68
2022/12/17 15:18:28;;;;;;;97.63;49.30;;;;;;;;;;5027585;28;20021;-69
2022/12/17 15:20:53;;;;;;;91.38;50.00;;;;;;;;;;5028929;28;20013;-69
2022/12/17 15:23:20;;;;;;;91.72;49.22;;;;;;;;;;5024178;28;20079;-72
2022/12/17 15:25:46;;;;;;;103.72;52.28;;;;;;;;;;5020009;28;20021;-72
2022/12/17 15:28:12;;;;;;;104.53;51.45;;;;;;;;;;5024125;28;20075;-70
2022/12/17 15:30:38;;;;;;;104.53;53.95;;;;;;;;;;5024463;28;20775;-66
2022/12/17 15:33:05;;;;;;;111.38;55.80;;;;;;;;;;5027010;28;20023;-68
2022/12/17 15:35:30;;;;;;;105.50;56.78;;;;;;;;;;5011266;28;20425;-68
2022/12/17 15:37:55;;;;;;;112.78;58.40;;;;;;;;;;5007880;28;20021;-68
2022/12/17 15:40:21;;;;;;;113.50;58.70;;;;;;;;;;5009832;28;20924;-68
2022/12/17 15:45:30;;;;;;;127.55;59.95;;;;;;;;;;5009105;28;20099;-69
2022/12/17 15:47:56;;;;;;;125.55;61.58;;;;;;;;;;5008695;28;20021;-68
2022/12/17 15:50:21;;;;;;;124.22;62.80;;;;;;;;;;5009634;28;20191;-67
2022/12/17 15:52:46;;;;;;;117.97;60.28;;;;;;;;;;5007763;28;20017;-68
2022/12/17 15:55:11;;;;;;;138.77;61.83;;;;;;;;;;5005142;28;20075;-68
2022/12/17 15:57:37;;;;;;;143.35;61.25;;;;;;;;;;5007029;28;20028;-68
2022/12/17 16:00:02;;;;;;;116.72;55.65;;;;;;;;;;5011421;28;20021;-66
2022/12/17 16:02:27;;;;;;;110.68;55.95;;;;;;;;;;5011914;28;20139;-67
2022/12/17 16:04:52;;;;;;;126.10;59.70;;;;;;;;;;5011148;28;20032;-67
2022/12/17 16:07:18;;;;;;;108.13;55.33;;;;;;;;;;5007050;28;20028;-67
2022/12/17 16:09:43;;;;;;;115.53;54.90;;;;;;;;;;5009801;28;20891;-68
2022/12/17 16:12:08;;;;;;;99.55;52.63;;;;;;;;;;5025348;28;20025;-67
2022/12/17 16:14:34;;;;;;;104.50;49.60;;;;;;;;;;5008256;28;21775;-75
2022/12/17 16:16:59;;;;;;;103.95;52.53;;;;;;;;;;5007330;28;20067;-71
2022/12/17 16:19:24;;;;;;;110.38;56.67;;;;;;;;;;5008898;28;20029;-73
2022/12/17 16:21:49;;;;;;;108.07;55.17;;;;;;;;;;5007798;28;20872;-70
2022/12/17 16:24:15;;;;;;;97.05;55.15;;;;;;;;;;5003903;28;20168;-77
2022/12/17 16:26:40;;;;;;;109.13;53.67;;;;;;;;;;5010526;28;20754;-82
2022/12/17 16:29:05;;;;;;;99.78;52.17;;;;;;;;;;5010310;28;20075;-76
2022/12/17 16:31:31;;;;;;;110.90;53.05;;;;;;;;;;5017628;28;20736;-91
2022/12/17 16:33:56;;;;;;;98.20;49.75;;;;;;;;;;5027296;28;20028;-76
2022/12/17 16:36:21;;;;;;;101.75;51.88;;;;;;;;;;5012367;28;20087;-77
2022/12/17 16:38:51;;;;;;;99.63;50.53;;;;;;;;;;5008095;28;20025;-74
2022/12/17 16:41:16;;;;;;;111.50;54.75;;;;;;;;;;4993952;28;20025;-74
2022/12/17 16:43:42;;;;;;;107.63;52.83;;;;;;;;;;5005775;28;20189;-75
2022/12/17 16:46:26;;;;;;;95.85;49.13;;;;;;;;;;5003033;28;20129;-74
2022/12/17 16:48:51;;;;;;;104.25;50.10;;;;;;;;;;5007271;28;20031;-74
2022/12/17 16:51:19;;;;;;;84.53;47.38;;;;;;;;;;5005927;28;20387;-75
2022/12/17 16:53:45;;;;;;;92.80;50.17;;;;;;;;;;4994406;28;20021;-75
2022/12/17 16:56:17;;;;;;;93.70;49.30;;;;;;;;;;5004797;28;20109;-74
2022/12/17 16:58:42;;;;;;;86.57;46.95;;;;;;;;;;5006404;28;20032;-74
2022/12/17 17:01:08;;;;;;;96.75;48.25;;;;;;;;;;5005520;28;20020;-74
2022/12/17 17:03:33;;;;;;;91.30;46.10;;;;;;;;;;5008480;28;20797;-74
2022/12/17 17:05:59;;;;;;;91.55;46.25;;;;;;;;;;5009204;28;20028;-77
2022/12/17 17:08:24;;;;;;;82.25;45.92;;;;;;;;;;5009833;28;20017;-75
2022/12/17 17:10:49;;;;;;;87.90;46.90;;;;;;;;;;5002735;28;20040;-74
2022/12/17 17:13:15;;;;;;;85.28;45.17;;;;;;;;;;5004361;28;20887;-72
2022/12/17 17:15:40;;;;;;;83.43;46.92;;;;;;;;;;5005640;28;20088;-68
2022/12/17 17:18:05;;;;;;;93.22;46.78;;;;;;;;;;5006732;28;20921;-71
2022/12/17 17:20:31;;;;;;;84.68;44.90;;;;;;;;;;5005666;28;20025;-75
2022/12/17 17:22:56;;;;;;;93.22;46.63;;;;;;;;;;5007005;28;20147;-75
2022/12/17 17:25:21;;;;;;;86.70;45.25;;;;;;;;;;4995663;28;21001;-70
2022/12/17 17:27:46;;;;;;;91.72;47.03;;;;;;;;;;5006152;28;20145;-72
2022/12/17 17:30:12;;;;;;;90.22;44.60;;;;;;;;;;5006955;28;20033;-76
2022/12/17 17:32:37;;;;;;;90.93;47.70;;;;;;;;;;4999346;28;20137;-70
2022/12/17 17:35:03;;;;;;;88.82;49.00;;;;;;;;;;5006847;28;20805;-75
2022/12/17 17:37:28;;;;;;;95.07;47.28;;;;;;;;;;5005275;28;20028;-75
2022/12/17 17:39:53;;;;;;;85.32;45.47;;;;;;;;;;5006096;28;20040;-74
2022/12/17 17:42:18;;;;;;;85.03;42.97;;;;;;;;;;5008634;28;20021;-75
2022/12/17 17:44:44;;;;;;;87.75;44.78;;;;;;;;;;5004955;28;20025;-70
2022/12/17 17:47:09;;;;;;;83.13;43.22;;;;;;;;;;5006283;28;20128;-69
2022/12/17 17:49:35;;;;;;;88.85;44.47;;;;;;;;;;4995854;28;20131;-69
2022/12/17 17:52:01;;;;;;;78.72;42.15;;;;;;;;;;5006312;28;20096;-71
2022/12/17 17:54:26;;;;;;;73.90;39.53;;;;;;;;;;5006656;28;20113;-71
2022/12/17 17:56:51;;;;;;;82.43;39.80;;;;;;;;;;5011416;28;20033;-74
2022/12/17 17:59:18;;;;;;;84.60;41.72;;;;;;;;;;5006901;28;20017;-74
2022/12/17 18:01:44;;;;;;;75.90;38.03;;;;;;;;;;5006764;28;20276;-77
2022/12/17 18:04:10;;;;;;;77.38;38.70;;;;;;;;;;5006760;28;20120;-71
2022/12/17 18:06:36;;;;;;;87.93;41.25;;;;;;;;;;5006108;28;20103;-71
2022/12/17 18:09:02;;;;;;;82.10;41.92;;;;;;;;;;5006126;28;21086;-70
2022/12/17 18:11:28;;;;;;;82.32;43.83;;;;;;;;;;5013567;28;20843;-79
2022/12/17 18:13:54;;;;;;;80.68;41.92;;;;;;;;;;5007499;28;20017;-77
2022/12/17 18:16:24;;;;;;;84.05;43.35;;;;;;;;;;5010359;28;20895;-87
2022/12/17 18:18:51;;;;;;;85.82;43.67;;;;;;;;;;5014516;28;20021;-76
2022/12/17 18:21:17;;;;;;;80.82;42.80;;;;;;;;;;5000521;28;20009;-74
2022/12/17 18:23:42;;;;;;;79.68;40.13;;;;;;;;;;5000471;28;20231;-73
2022/12/17 18:26:14;;;;;;;81.35;41.17;;;;;;;;;;5005947;28;20843;-74
2022/12/17 18:28:41;;;;;;;72.43;41.80;;;;;;;;;;4996921;28;20177;-75
2022/12/17 18:31:07;;;;;;;83.20;43.05;;;;;;;;;;5006513;28;20206;-70
2022/12/17 18:33:33;;;;;;;76.70;41.72;;;;;;;;;;4998290;28;20129;-72
2022/12/17 18:35:58;;;;;;;80.53;42.40;;;;;;;;;;5004395;28;20759;-75
2022/12/17 18:38:23;;;;;;;78.80;42.05;;;;;;;;;;5004287;28;20232;-73
2022/12/17 18:40:48;;;;;;;79.88;43.75;;;;;;;;;;5005177;28;20013;-74
2022/12/17 18:43:23;;;;;;;77.15;40.15;;;;;;;;;;5006916;28;20912;-76
2022/12/17 18:45:48;;;;;;;83.80;43.03;;;;;;;;;;5052923;28;20144;-81
2022/12/17 18:48:14;;;;;;;78.97;41.17;;;;;;;;;;5013834;28;20809;-73
2022/12/17 18:50:39;;;;;;;86.80;42.05;;;;;;;;;;5003524;28;20937;-75
2022/12/17 18:53:05;;;;;;;82.03;42.47;;;;;;;;;;5004247;28;20025;-73
2022/12/17 18:55:30;;;;;;;88.25;42.72;;;;;;;;;;5004954;28;20967;-73
2022/12/17 18:57:55;;;;;;;82.15;41.05;;;;;;;;;;5005168;28;20028;-76
2022/12/17 19:00:20;;;;;;;77.78;42.67;;;;;;;;;;5004982;28;20029;-72
2022/12/17 19:02:46;;;;;;;78.00;40.75;;;;;;;;;;5004430;28;20074;-73
2022/12/17 19:05:11;;;;;;;79.43;39.80;;;;;;;;;;5005116;28;20028;-72
2022/12/17 19:07:36;;;;;;;89.03;43.15;;;;;;;;;;5004506;28;20017;-76
2022/12/17 19:10:01;;;;;;;81.38;40.58;;;;;;;;;;5003398;28;20024;-72
2022/12/17 19:12:27;;;;;;;81.80;42.70;;;;;;;;;;5004143;28;20075;-72
2022/12/17 19:14:52;;;;;;;80.85;41.35;;;;;;;;;;5005828;28;20025;-74
2022/12/17 19:17:17;;;;;;;82.90;40.05;;;;;;;;;;5004630;28;20921;-75
2022/12/17 19:19:42;;;;;;;76.15;39.03;;;;;;;;;;5003822;28;20056;-78
2022/12/17 19:22:08;;;;;;;88.05;44.08;;;;;;;;;;5006441;28;20806;-75
2022/12/17 19:24:33;;;;;;;78.13;43.17;;;;;;;;;;5003841;28;20021;-72
2022/12/17 19:26:58;;;;;;;87.43;45.70;;;;;;;;;;5008848;28;20183;-85
2022/12/17 19:29:23;;;;;;;90.47;43.15;;;;;;;;;;5014830;28;20021;-75
2022/12/17 19:31:49;;;;;;;88.38;44.65;;;;;;;;;;5005540;28;20033;-72
2022/12/17 19:34:15;;;;;;;80.20;42.90;;;;;;;;;;4999187;28;20024;-71
2022/12/17 19:36:40;;;;;;;83.50;43.58;;;;;;;;;;5003536;28;20434;-72
2022/12/17 19:39:07;;;;;;;75.13;42.90;;;;;;;;;;5003585;28;20025;-76
2022/12/17 19:41:33;;;;;;;76.85;41.47;;;;;;;;;;5004876;28;20017;-74
2022/12/17 19:44:03;;;;;;;86.75;43.15;;;;;;;;;;5013322;28;20025;-71
2022/12/17 19:46:29;;;;;;;73.53;39.30;;;;;;;;;;5001090;28;20029;-71
2022/12/17 19:48:55;;;;;;;74.53;40.83;;;;;;;;;;4994870;28;20041;-71
2022/12/17 19:51:21;;;;;;;74.07;38.58;;;;;;;;;;5005871;28;20051;-69
2022/12/17 19:53:47;;;;;;;75.22;40.58;;;;;;;;;;5002505;28;20048;-71
2022/12/17 19:56:15;;;;;;;80.70;41.00;;;;;;;;;;5003697;28;20449;-74
2022/12/17 19:58:41;;;;;;;65.82;39.15;;;;;;;;;;5004565;28;20040;-71
2022/12/17 20:01:06;;;;;;;83.25;42.15;;;;;;;;;;4995395;28;20235;-71
2022/12/17 20:03:32;;;;;;;79.20;41.75;;;;;;;;;;5001422;28;20028;-70
2022/12/17 20:05:57;;;;;;;74.82;41.95;;;;;;;;;;5007465;28;20134;-73
2022/12/17 20:08:22;;;;;;;82.47;41.42;;;;;;;;;;5007572;28;21027;-72
2022/12/17 20:10:48;;;;;;;79.20;41.47;;;;;;;;;;5007032;28;20110;-73
2022/12/17 20:13:13;;;;;;;77.45;40.55;;;;;;;;;;5006369;28;20946;-73
2022/12/17 20:15:38;;;;;;;90.65;41.70;;;;;;;;;;5007284;28;20090;-70
2022/12/17 20:18:04;;;;;;;70.50;39.30;;;;;;;;;;5006805;28;20327;-73
2022/12/17 20:20:29;;;;;;;75.25;37.97;;;;;;;;;;5007049;28;20075;-70
2022/12/17 20:22:54;;;;;;;81.82;39.20;;;;;;;;;;5007494;28;20079;-69
2022/12/17 20:25:19;;;;;;;73.00;38.42;;;;;;;;;;5006692;28;20913;-68
2022/12/17 20:27:45;;;;;;;67.88;39.00;;;;;;;;;;5006362;28;20051;-67
2022/12/17 20:30:10;;;;;;;77.25;38.25;;;;;;;;;;4996932;28;20024;-68
2022/12/17 20:32:36;;;;;;;77.43;38.33;;;;;;;;;;5007193;28;20123;-68
2022/12/17 20:35:01;;;;;;;72.03;39.45;;;;;;;;;;4996428;28;20049;-69
2022/12/17 20:37:26;;;;;;;72.93;37.38;;;;;;;;;;5004652;28;20952;-69
2022/12/17 20:39:52;;;;;;;68.22;35.55;;;;;;;;;;4996350;28;20031;-69
2022/12/17 20:42:17;;;;;;;66.80;35.35;;;;;;;;;;5007092;28;20025;-68
2022/12/17 20:44:43;;;;;;;69.70;34.40;;;;;;;;;;5008360;28;20087;-71
2022/12/17 20:47:08;;;;;;;66.47;35.75;;;;;;;;;;5007275;28;20048;-69
2022/12/17 20:49:33;;;;;;;61.42;33.10;;;;;;;;;;5006224;28;20870;-70
2022/12/17 20:51:59;;;;;;;67.90;33.00;;;;;;;;;;5006799;28;20865;-68
2022/12/17 20:54:24;;;;;;;64.45;32.72;;;;;;;;;;5007698;28;20120;-72
2022/12/17 20:56:49;;;;;;;61.35;31.85;;;;;;;;;;5005627;28;20021;-73
2022/12/17 20:59:16;;;;;;;61.85;32.03;;;;;;;;;;4997829;28;20338;-69
2022/12/17 21:01:41;;;;;;;59.20;29.98;;;;;;;;;;5007552;28;20513;-68
2022/12/17 21:04:06;;;;;;;59.40;31.77;;;;;;;;;;5006176;28;20017;-70
2022/12/17 21:06:36;;;;;;;56.78;32.30;;;;;;;;;;5006721;28;20776;-74
2022/12/17 21:09:02;;;;;;;61.20;31.15;;;;;;;;;;5006527;28;20059;-73
2022/12/17 21:11:28;;;;;;;62.78;32.67;;;;;;;;;;5004991;28;20033;-71
2022/12/17 21:13:54;;;;;;;53.03;31.33;;;;;;;;;;5003931;28;20215;-73
2022/12/17 21:16:20;;;;;;;64.50;32.63;;;;;;;;;;5009302;28;20052;-74
2022/12/17 21:18:46;;;;;;;64.55;32.40;;;;;;;;;;5039105;28;20017;-75
2022/12/17 21:21:13;;;;;;;57.22;33.42;;;;;;;;;;5048519;28;20135;-75
2022/12/17 21:23:38;;;;;;;60.90;31.98;;;;;;;;;;5042955;28;20025;-75
2022/12/17 21:26:04;;;;;;;66.00;30.70;;;;;;;;;;5049086;28;20021;-75
2022/12/17 21:28:30;;;;;;;55.17;30.63;;;;;;;;;;5048765;28;20016;-76
2022/12/17 21:30:55;;;;;;;63.72;32.42;;;;;;;;;;5048131;28;20525;-75
2022/12/17 21:33:20;;;;;;;57.17;31.35;;;;;;;;;;5049570;28;20032;-75
2022/12/17 21:35:46;;;;;;;55.55;30.58;;;;;;;;;;5050348;28;20060;-75
2022/12/17 21:38:11;;;;;;;51.70;29.80;;;;;;;;;;5049881;28;20024;-75
2022/12/17 21:40:36;;;;;;;52.83;30.35;;;;;;;;;;5050276;28;20492;-75
2022/12/17 21:43:02;;;;;;;55.75;31.05;;;;;;;;;;5048803;28;20020;-75
2022/12/17 21:45:37;;;;;;;55.35;31.42;;;;;;;;;;5043342;28;20066;-74
2022/12/17 21:48:05;;;;;;;50.63;32.55;;;;;;;;;;5041553;28;20025;-74
2022/12/17 21:50:31;;;;;;;59.25;33.22;;;;;;;;;;5026747;28;20039;-75
2022/12/17 21:52:57;;;;;;;52.80;30.52;;;;;;;;;;5024449;28;20029;-74
2022/12/17 21:55:22;;;;;;;55.63;33.35;;;;;;;;;;5049763;28;20060;-74
2022/12/17 21:57:47;;;;;;;66.93;32.60;;;;;;;;;;5050100;28;20033;-74
2022/12/17 22:00:13;;;;;;;56.00;32.10;;;;;;;;;;5048036;28;20676;-73
2022/12/17 22:02:39;;;;;;;49.88;29.83;;;;;;;;;;5048614;28;20028;-74
2022/12/17 22:05:04;;;;;;;58.13;33.40;;;;;;;;;;5040265;28;20016;-74
2022/12/17 22:07:29;;;;;;;56.30;32.17;;;;;;;;;;5048318;28;20021;-74
2022/12/17 22:09:55;;;;;;;54.92;32.58;;;;;;;;;;5048213;28;20391;-73
2022/12/17 22:15:04;;;;;;;63.00;32.50;;;;;;;;;;5045839;28;20491;-73
2022/12/17 22:17:29;;;;;;;55.08;31.13;;;;;;;;;;5039937;28;20048;-72
2022/12/17 22:19:54;;;;;;;51.97;29.17;;;;;;;;;;5043911;28;20801;-72
2022/12/17 22:22:20;;;;;;;57.50;32.10;;;;;;;;;;5038654;28;20052;-73
2022/12/17 22:24:45;;;;;;;56.90;32.50;;;;;;;;;;5047833;28;20047;-72
2022/12/17 22:27:10;;;;;;;58.75;32.50;;;;;;;;;;5046752;28;20898;-72
2022/12/17 22:35:04;;;;;;;51.10;29.63;;;;;;;;;;5036393;28;20365;-72
2022/12/17 22:37:29;;;;;;;57.22;31.40;;;;;;;;;;5045844;28;20016;-72
2022/12/17 22:39:54;;;;;;;56.50;30.92;;;;;;;;;;5047833;28;20023;-72
2022/12/17 22:45:04;;;;;;;53.13;30.08;;;;;;;;;;5046239;28;20031;-72
2022/12/17 22:47:30;;;;;;;46.13;27.75;;;;;;;;;;5048436;28;20055;-73
2022/12/17 22:49:55;;;;;;;49.65;29.25;;;;;;;;;;5047462;28;20021;-73
2022/12/17 22:52:20;;;;;;;44.20;26.88;;;;;;;;;;5048114;28;20087;-72
2022/12/17 22:54:45;;;;;;;56.80;29.55;;;;;;;;;;5043699;28;20024;-73
2022/12/17 22:57:11;;;;;;;56.35;29.25;;;;;;;;;;5047694;28;20039;-72
2022/12/17 22:59:36;;;;;;;46.25;27.95;;;;;;;;;;5046087;28;20523;-73
2022/12/17 23:02:01;;;;;;;45.97;27.60;;;;;;;;;;5045350;28;20020;-72
2022/12/17 23:04:26;;;;;;;53.05;28.40;;;;;;;;;;5044160;28;20028;-72
2022/12/17 23:06:52;;;;;;;48.90;28.85;;;;;;;;;;5045791;28;20032;-72
2022/12/17 23:09:18;;;;;;;48.80;27.83;;;;;;;;;;5046693;28;20896;-72
2022/12/17 23:11:43;;;;;;;49.58;28.35;;;;;;;;;;5042775;28;20025;-72
2022/12/17 23:14:09;;;;;;;43.05;24.45;;;;;;;;;;5045739;28;20031;-73
2022/12/17 23:16:36;;;;;;;49.47;28.60;;;;;;;;;;5044572;28;20044;-72
2022/12/17 23:19:01;;;;;;;47.20;27.73;;;;;;;;;;5043975;28;20029;-72
2022/12/17 23:21:27;;;;;;;45.10;26.42;;;;;;;;;;5044925;28;20040;-72
2022/12/17 23:23:53;;;;;;;45.58;25.67;;;;;;;;;;5036503;28;20044;-72
2022/12/17 23:26:20;;;;;;;44.92;25.45;;;;;;;;;;5042195;28;20138;-72
2022/12/17 23:28:45;;;;;;;47.67;25.58;;;;;;;;;;5041384;28;20029;-72
2022/12/17 23:31:12;;;;;;;45.80;26.15;;;;;;;;;;5043831;28;20033;-72
2022/12/17 23:33:38;;;;;;;43.45;29.10;;;;;;;;;;5045082;28;20563;-72
2022/12/17 23:36:13;;;;;;;46.97;27.83;;;;;;;;;;5042999;28;20031;-72
2022/12/17 23:38:39;;;;;;;48.47;27.50;;;;;;;;;;5041653;28;20048;-72
2022/12/17 23:41:12;;;;;;;52.17;27.63;;;;;;;;;;5047933;28;20130;-73
2022/12/17 23:43:38;;;;;;;47.40;26.52;;;;;;;;;;5048608;28;20082;-73
2022/12/17 23:46:04;;;;;;;50.17;27.20;;;;;;;;;;5048595;28;20496;-73
2022/12/17 23:48:31;;;;;;;45.72;27.85;;;;;;;;;;5041633;28;20076;-73
2022/12/17 23:50:57;;;;;;;45.72;26.27;;;;;;;;;;5038956;28;20044;-73
2022/12/17 23:53:22;;;;;;;46.88;24.58;;;;;;;;;;5047861;28;20025;-73
2022/12/17 23:55:48;;;;;;;40.92;24.25;;;;;;;;;;5045313;28;20032;-73
2022/12/17 23:58:13;;;;;;;39.38;25.52;;;;;;;;;;5048935;28;20017;-73
